Portada
METAR-TAF:

METAR-TAF

Aeroports :

Ardabil, Iran

latitud: 38-19-35N, longitud: 048-25-28E, altitud: 1315 m

Observació

L'informe es va fer fa 1 hora i 9 minuts, a les 04:00 UTC
Vent 10 kt del Sud-Oest amb ràfegues de 31 kt
Temperatura 3°C
Humitat 48%
Pressió 1013 hPa
Visibilitat 10 km o més
Núvols disperses a una alçada de 10000 ft
Cel ennuvolat a una alçada de 20000 ft

METAR: OITL 280400Z 23010G31KT 9999 SCT100 BKN200 03/M07 Q1013

Hora: 08:39 (05:09 UTC)


TAF: manca

Observacions i pronòstics meteorològics de més de 4000 aeroports (METAR i TAF).

Les estacions disponibles són els punts grocs i vermells al mapa.

Posi el ratolí al punt desitjat per veure el nom de l'estació.

Feu clic per veure les observacions i els pronòstics meteorològics.

Per canviar el mapa: feu clic els botons verds amb una creu de color negre per apropar; al botó verd amb un guió per allunyar la imatge; o en les fletxes verdes per a mapes adjacents.


METAR-TAF: